createdAt,value
2022-12-13T00:01:56.353Z,35.02
2022-12-13T00:04:01.134Z,34.95
2022-12-13T00:06:05.587Z,34.89
2022-12-13T00:08:10.084Z,35.15
2022-12-13T00:10:14.496Z,34.94
2022-12-13T00:12:18.765Z,35.01
2022-12-13T00:14:23.079Z,35.21
2022-12-13T00:16:27.606Z,35.14
2022-12-13T00:18:32.674Z,35.41
2022-12-13T00:20:37.204Z,35.42
2022-12-13T00:22:41.481Z,35.27
2022-12-13T00:24:48.112Z,35.2
2022-12-13T00:26:52.884Z,35.31
2022-12-13T00:28:57.238Z,35.41
2022-12-13T00:32:00.773Z,35.63
2022-12-13T00:34:05.358Z,35.79
2022-12-13T00:36:09.638Z,35.76
2022-12-13T00:38:13.957Z,35.43
2022-12-13T00:40:18.287Z,35.6
2022-12-13T00:42:22.651Z,35.61
2022-12-13T00:44:27.056Z,35.84
2022-12-13T00:46:31.667Z,35.9
2022-12-13T00:48:36.055Z,36.01
2022-12-13T00:50:40.384Z,35.84
2022-12-13T00:52:44.719Z,35.83
2022-12-13T00:54:49.042Z,35.89
2022-12-13T00:56:53.298Z,35.9
2022-12-13T00:58:57.610Z,36.13
2022-12-13T01:01:02.069Z,36.02
2022-12-13T01:03:06.615Z,36.14
2022-12-13T01:05:11.052Z,35.98
2022-12-13T01:07:15.423Z,35.97
2022-12-13T01:09:19.750Z,36.12
2022-12-13T01:11:24.152Z,36.05
2022-12-13T01:13:28.434Z,36.14
2022-12-13T01:15:32.770Z,36.08
2022-12-13T01:17:37.050Z,36.18
2022-12-13T01:19:41.334Z,36.33
2022-12-13T01:21:45.619Z,36.34
2022-12-13T01:23:49.885Z,36.3
2022-12-13T01:25:54.168Z,36.49
2022-12-13T01:27:58.466Z,36.44
2022-12-13T01:30:02.739Z,36.56
2022-12-13T01:32:07.026Z,36.62
2022-12-13T01:34:11.682Z,36.52
2022-12-13T01:36:15.978Z,36.55
2022-12-13T01:38:20.291Z,36.5
2022-12-13T01:40:30.500Z,36.56
2022-12-13T01:42:34.780Z,36.58
2022-12-13T01:44:39.071Z,36.78
2022-12-13T01:46:43.356Z,37.01
2022-12-13T01:48:47.653Z,36.78
2022-12-13T01:50:51.944Z,36.75
2022-12-13T01:52:56.232Z,36.74
2022-12-13T01:55:05.752Z,36.84
2022-12-13T01:57:10.040Z,36.84
2022-12-13T01:59:14.335Z,36.87
2022-12-13T02:01:18.874Z,36.92
2022-12-13T02:03:24.006Z,36.83
2022-12-13T02:05:28.536Z,37.02
2022-12-13T02:07:32.822Z,36.84
2022-12-13T02:09:37.128Z,36.96
2022-12-13T02:11:41.430Z,37.02
2022-12-13T02:13:45.731Z,37.01
2022-12-13T02:15:50.312Z,37.08
2022-12-13T02:17:54.661Z,37.21
2022-12-13T02:19:58.922Z,37.02
2022-12-13T02:22:03.222Z,37.04
2022-12-13T02:24:11.097Z,36.98
2022-12-13T02:26:15.400Z,37.02
2022-12-13T02:28:33.656Z,37.07
2022-12-13T02:30:37.950Z,36.96
2022-12-13T02:32:42.262Z,37.11
2022-12-13T02:34:46.548Z,36.97
2022-12-13T02:36:50.819Z,37.41
2022-12-13T02:38:55.125Z,36.98
2022-12-13T02:41:02.802Z,37.35
2022-12-13T02:43:07.083Z,36.93
2022-12-13T02:45:20.461Z,37.03
2022-12-13T02:47:25.204Z,36.91
2022-12-13T02:49:29.522Z,37.42
2022-12-13T02:51:33.802Z,37.11
2022-12-13T02:53:38.066Z,37.33
2022-12-13T02:55:42.384Z,37.29
2022-12-13T02:57:46.668Z,37.28
2022-12-13T02:59:54.835Z,37.23
2022-12-13T03:02:12.218Z,37.3
2022-12-13T03:04:16.509Z,37.11
2022-12-13T03:06:20.799Z,37.11
2022-12-13T03:08:25.434Z,37.01
2022-12-13T03:10:29.795Z,36.99
2022-12-13T03:12:34.090Z,36.97
2022-12-13T03:14:38.495Z,37
2022-12-13T03:16:42.809Z,36.96
2022-12-13T03:18:47.143Z,37.07
2022-12-13T03:20:54.615Z,37.03
2022-12-13T03:22:58.934Z,36.91
2022-12-13T03:25:03.214Z,36.92
2022-12-13T03:27:07.515Z,36.98
2022-12-13T03:29:11.808Z,36.98
2022-12-13T03:31:16.422Z,36.98
2022-12-13T03:33:20.824Z,37.18
2022-12-13T03:35:44.606Z,37.31
2022-12-13T03:37:49.845Z,37.3
2022-12-13T03:39:54.090Z,37.18
2022-12-13T03:41:58.388Z,37.36
2022-12-13T03:44:02.677Z,37.22
2022-12-13T03:46:07.216Z,37.05
2022-12-13T03:48:11.537Z,37.12
2022-12-13T03:50:28.743Z,37.14
2022-12-13T03:52:33.020Z,36.98
2022-12-13T03:54:37.311Z,37.04
2022-12-13T03:56:41.583Z,37.01
2022-12-13T03:58:45.876Z,36.92
2022-12-13T04:00:50.179Z,36.98
2022-12-13T04:02:54.719Z,37.02
2022-12-13T04:05:02.807Z,36.86
2022-12-13T04:07:23.865Z,36.91
2022-12-13T04:09:28.137Z,37
2022-12-13T04:11:32.429Z,36.97
2022-12-13T04:13:36.707Z,37.13
2022-12-13T04:15:41.055Z,37.07
2022-12-13T04:17:52.937Z,37.42
2022-12-13T04:19:57.211Z,37.11
2022-12-13T04:22:01.522Z,37.26
2022-12-13T04:24:05.889Z,37.17
2022-12-13T04:26:10.174Z,37.63
2022-12-13T04:28:24.419Z,37.4
2022-12-13T04:30:28.714Z,37.36
2022-12-13T04:32:32.989Z,37.48
2022-12-13T04:34:39.715Z,37.6
2022-12-13T04:36:43.991Z,37.61
2022-12-13T04:38:48.245Z,37.59
2022-12-13T04:40:52.553Z,37.6
2022-12-13T04:42:56.892Z,37.45
2022-12-13T04:45:01.816Z,37.43
2022-12-13T04:47:06.104Z,37.55
2022-12-13T04:49:10.401Z,37.35
2022-12-13T04:51:14.733Z,37.25
2022-12-13T04:53:19.018Z,37.35
2022-12-13T04:55:23.311Z,37.41
2022-12-13T04:57:27.641Z,37.49
2022-12-13T04:59:31.913Z,37.35
2022-12-13T05:01:36.299Z,37.23
2022-12-13T05:03:40.593Z,37.21
2022-12-13T05:05:44.898Z,37.4
2022-12-13T05:07:49.505Z,37.36
2022-12-13T05:09:53.829Z,37.3
2022-12-13T05:12:03.622Z,37.17
2022-12-13T05:14:07.894Z,37.16
2022-12-13T05:16:12.410Z,37.31
2022-12-13T05:18:16.695Z,37.38
2022-12-13T05:20:20.987Z,37.23
2022-12-13T05:22:25.300Z,37.16
2022-12-13T05:24:29.592Z,37.28
2022-12-13T05:26:33.852Z,37.24
2022-12-13T05:28:38.183Z,37.12
2022-12-13T05:30:43.723Z,37.4
2022-12-13T05:32:48.034Z,37.3
2022-12-13T05:34:52.288Z,37.36
2022-12-13T05:36:56.560Z,37.33
2022-12-13T05:39:00.865Z,37.31
2022-12-13T05:41:05.158Z,37.37
2022-12-13T05:43:23.743Z,37.41
2022-12-13T05:45:47.648Z,37.38
2022-12-13T05:47:51.963Z,37.56
2022-12-13T05:49:56.257Z,37.39
2022-12-13T05:52:00.559Z,37.41
2022-12-13T05:54:04.880Z,37.3
2022-12-13T05:56:09.206Z,37.11
2022-12-13T05:58:24.001Z,37.13
2022-12-13T06:00:32.658Z,36.49
2022-12-13T06:02:37.256Z,36.99
2022-12-13T06:04:41.555Z,37.21
2022-12-13T06:06:45.850Z,37.09
2022-12-13T06:08:50.307Z,37
2022-12-13T06:11:21.544Z,36.42
2022-12-13T06:13:45.302Z,36.31
2022-12-13T06:15:49.610Z,36.13
2022-12-13T06:17:53.915Z,36.22
2022-12-13T06:19:58.217Z,36.21
2022-12-13T06:22:02.511Z,36.34
2022-12-13T06:24:06.818Z,36.28
2022-12-13T06:26:11.094Z,33.42
2022-12-13T06:28:15.375Z,33.54
2022-12-13T06:30:19.651Z,34.04
2022-12-13T06:32:23.964Z,34.55
2022-12-13T06:34:28.243Z,33.19
2022-12-13T06:36:32.514Z,33.52
2022-12-13T06:38:45.391Z,33.15
2022-12-13T06:40:49.685Z,33.15
2022-12-13T06:42:53.993Z,34.17
2022-12-13T06:44:58.556Z,34.45
2022-12-13T06:47:32.826Z,34.13
2022-12-13T06:49:37.146Z,33.86
2022-12-13T06:51:41.425Z,33.51
2022-12-13T06:53:45.797Z,33.35
2022-12-13T06:55:50.075Z,33.73
2022-12-13T06:57:54.369Z,33.44
2022-12-13T06:59:58.665Z,33.66
2022-12-13T07:02:05.842Z,33.75
2022-12-13T07:04:32.591Z,33.87
2022-12-13T07:06:36.873Z,34.1
2022-12-13T07:08:41.267Z,34.07
2022-12-13T07:10:45.591Z,34.13
2022-12-13T07:12:49.903Z,34.24
2022-12-13T07:14:54.214Z,34.23
2022-12-13T07:17:05.313Z,34.14
2022-12-13T07:19:26.312Z,34.29
2022-12-13T07:21:39.157Z,34.1
2022-12-13T07:23:43.424Z,34.14
2022-12-13T07:25:47.708Z,33.58
2022-12-13T07:27:52.043Z,33.17
2022-12-13T07:29:56.330Z,32.92
2022-12-13T07:32:03.483Z,32.87
2022-12-13T07:34:11.685Z,32.69
2022-12-13T07:36:18.474Z,32.6
2022-12-13T07:38:22.796Z,32.73
2022-12-13T07:40:27.101Z,32.51
2022-12-13T07:42:31.425Z,32.49
2022-12-13T07:44:35.755Z,32.42
2022-12-13T07:46:40.293Z,32.28
2022-12-13T07:48:44.669Z,32.26
2022-12-13T07:50:56.744Z,32.19
2022-12-13T07:53:01.039Z,32.24
2022-12-13T07:55:05.343Z,32.25
2022-12-13T07:57:09.654Z,32.2
2022-12-13T07:59:13.960Z,32.25
2022-12-13T08:01:18.614Z,32.22
2022-12-13T08:03:28.177Z,31.97
2022-12-13T08:05:41.320Z,32.01
2022-12-13T08:07:45.660Z,31.98
2022-12-13T08:09:54.668Z,31.94
2022-12-13T08:12:03.155Z,31.81
2022-12-13T08:14:07.440Z,31.63
2022-12-13T08:16:31.180Z,31.78
2022-12-13T08:18:35.641Z,31.98
2022-12-13T08:20:39.920Z,31.82
2022-12-13T08:22:51.369Z,32.12
2022-12-13T08:24:55.693Z,30.77
2022-12-13T08:26:59.982Z,31.52
2022-12-13T08:29:04.265Z,31.17
2022-12-13T08:31:08.735Z,30.88
2022-12-13T08:33:13.078Z,31.93
2022-12-13T08:35:17.351Z,31.36
2022-12-13T08:37:21.654Z,31.28
2022-12-13T08:39:25.968Z,30.9
2022-12-13T08:41:38.862Z,31.08
2022-12-13T08:43:43.394Z,31.42
2022-12-13T08:45:47.686Z,31.51
2022-12-13T08:47:51.981Z,31.55
2022-12-13T08:50:02.468Z,31.58
2022-12-13T08:52:07.738Z,31.55
2022-12-13T08:54:13.581Z,32.09
2022-12-13T08:56:35.252Z,32.14
2022-12-13T08:58:39.533Z,32.32
2022-12-13T09:00:44.043Z,32.53
2022-12-13T09:02:48.594Z,32.54
2022-12-13T09:04:52.937Z,32.63
2022-12-13T09:07:02.577Z,32.47
2022-12-13T09:09:06.892Z,32.47
2022-12-13T09:11:34.909Z,32.51
2022-12-13T09:13:45.786Z,32.31
2022-12-13T09:15:50.325Z,32.4
2022-12-13T09:17:55.234Z,32.36
2022-12-13T09:20:30.454Z,32.2
2022-12-13T09:22:36.307Z,32
2022-12-13T09:24:40.636Z,31.92
2022-12-13T09:26:45.080Z,31.9
2022-12-13T09:28:49.407Z,32.35
2022-12-13T09:30:53.724Z,31.99
2022-12-13T09:32:58.056Z,32.24
2022-12-13T09:35:02.312Z,32.37
2022-12-13T09:37:06.685Z,32.39
2022-12-13T09:39:10.970Z,32.59
2022-12-13T09:41:29.951Z,32.65
2022-12-13T09:43:45.760Z,32.48
2022-12-13T09:45:50.598Z,32.37
2022-12-13T09:48:14.531Z,32.52
2022-12-13T09:50:27.495Z,32.56
2022-12-13T09:52:35.629Z,32.55
2022-12-13T09:54:50.406Z,32.34
2022-12-13T09:56:54.682Z,32.18
2022-12-13T09:58:59.001Z,32.04
2022-12-13T10:01:03.561Z,32.09
2022-12-13T10:03:07.936Z,31.95
2022-12-13T10:05:40.221Z,31.71
2022-12-13T10:07:44.811Z,31.58
2022-12-13T10:09:49.071Z,31.46
2022-12-13T10:11:53.414Z,31.33
2022-12-13T10:14:03.378Z,31.44
2022-12-13T10:16:07.834Z,31.23
2022-12-13T10:18:12.124Z,31.15
2022-12-13T10:20:16.472Z,31.01
2022-12-13T10:22:20.807Z,31.07
2022-12-13T10:24:38.039Z,31.06
2022-12-13T10:26:42.769Z,31.13
2022-12-13T10:28:47.086Z,30.82
2022-12-13T10:30:51.382Z,30.93
2022-12-13T10:32:55.692Z,30.69
2022-12-13T10:35:00.026Z,30.91
2022-12-13T10:37:04.340Z,30.76
2022-12-13T10:39:08.635Z,30.68
2022-12-13T10:41:12.961Z,30.79
2022-12-13T10:43:17.327Z,30.62
2022-12-13T10:45:25.412Z,30.68
2022-12-13T10:47:29.720Z,30.66
2022-12-13T10:49:34.042Z,30.85
2022-12-13T10:51:38.412Z,30.55
2022-12-13T10:53:49.850Z,30.62
2022-12-13T10:55:54.179Z,30.75
2022-12-13T10:57:58.669Z,30.57
2022-12-13T11:00:02.991Z,30.61
2022-12-13T11:02:07.508Z,30.54
2022-12-13T11:04:11.834Z,30.55
2022-12-13T11:06:16.315Z,30.36
2022-12-13T11:08:20.666Z,30.26
2022-12-13T11:10:29.511Z,30.31
2022-12-13T11:12:33.901Z,30.35
2022-12-13T11:14:45.250Z,29.8
2022-12-13T11:16:49.787Z,30.39
2022-12-13T11:18:54.149Z,30.42
2022-12-13T11:20:58.459Z,30.33
2022-12-13T11:23:02.824Z,30.14
2022-12-13T11:25:07.285Z,30.29
2022-12-13T11:27:11.568Z,30.53
2022-12-13T11:29:15.884Z,30.57
2022-12-13T11:31:20.406Z,30.64
2022-12-13T11:33:24.770Z,30.66
2022-12-13T11:35:29.066Z,30.68
2022-12-13T11:37:33.359Z,30.9
2022-12-13T11:39:37.700Z,30.84
2022-12-13T11:41:41.991Z,30.98
2022-12-13T11:43:46.328Z,31.12
2022-12-13T11:45:50.780Z,31.1
2022-12-13T11:48:00.543Z,31.49
2022-12-13T11:50:04.844Z,31.3
2022-12-13T11:52:09.123Z,31.42
2022-12-13T11:54:13.426Z,31.76
2022-12-13T11:56:27.817Z,31.8
2022-12-13T11:59:12.162Z,31.8
2022-12-13T12:01:20.571Z,31.72
2022-12-13T12:03:25.132Z,31.64
2022-12-13T12:05:29.492Z,31.6
2022-12-13T12:07:35.756Z,31.58
2022-12-13T12:09:40.077Z,31.5
2022-12-13T12:11:44.364Z,31.56
2022-12-13T12:13:53.871Z,31.5
2022-12-13T12:15:58.380Z,31.58
2022-12-13T12:18:02.638Z,31.47
2022-12-13T12:20:07.232Z,31.47
2022-12-13T12:22:17.205Z,31.4
2022-12-13T12:24:21.518Z,31.36
2022-12-13T12:26:25.826Z,31.37
2022-12-13T12:28:30.761Z,31.45
2022-12-13T12:30:35.074Z,31.56
2022-12-13T12:32:43.197Z,31.61
2022-12-13T12:34:47.526Z,31.55
2022-12-13T12:36:51.801Z,31.47
2022-12-13T12:38:56.165Z,31.44
2022-12-13T12:41:30.559Z,31.52
2022-12-13T12:43:36.478Z,31.43
2022-12-13T12:45:58.933Z,31.35
2022-12-13T12:49:03.558Z,30.77
2022-12-13T12:51:08.027Z,30.33
2022-12-13T12:53:12.644Z,31.08
2022-12-13T12:55:16.907Z,31.15
2022-12-13T12:57:21.240Z,31.4
2022-12-13T12:59:25.566Z,31.37
2022-12-13T13:01:37.840Z,31.31
2022-12-13T13:03:48.398Z,31.37
2022-12-13T13:06:01.813Z,31.43
2022-12-13T13:08:06.644Z,31.37
2022-12-13T13:10:28.531Z,31.37
2022-12-13T13:12:32.983Z,31.38
2022-12-13T13:14:37.309Z,31.44
2022-12-13T13:16:41.602Z,31.44
2022-12-13T13:18:45.957Z,31.48
2022-12-13T13:20:50.501Z,31.44
2022-12-13T13:23:41.257Z,31.51
2022-12-13T13:26:32.987Z,31.48
2022-12-13T13:28:40.222Z,31.51
2022-12-13T13:30:44.826Z,31.54
2022-12-13T13:32:49.140Z,31.53
2022-12-13T13:35:01.693Z,31.31
2022-12-13T13:37:06.032Z,31.46
2022-12-13T13:39:13.333Z,31.65
2022-12-13T13:41:17.672Z,31.16
2022-12-13T13:43:31.829Z,30.76
2022-12-13T13:45:36.558Z,30.72
2022-12-13T13:47:43.930Z,30.99
2022-12-13T13:49:49.375Z,31.08
2022-12-13T13:52:28.120Z,31
2022-12-13T13:54:41.984Z,30.81
2022-12-13T13:56:52.056Z,30.71
2022-12-13T13:58:58.834Z,30.7
2022-12-13T14:03:36.200Z,30.65
2022-12-13T14:05:40.774Z,30.47
2022-12-13T14:07:45.084Z,30.41
2022-12-13T14:09:49.418Z,30.06
2022-12-13T14:11:53.921Z,30.36
2022-12-13T14:13:58.254Z,30.34
2022-12-13T14:17:08.455Z,30.37
2022-12-13T14:19:12.763Z,30.7
2022-12-13T14:21:17.134Z,30.55
2022-12-13T14:23:23.882Z,30.51
2022-12-13T14:25:28.466Z,30.32
2022-12-13T14:27:32.780Z,30.37
2022-12-13T14:29:37.062Z,30.44
2022-12-13T14:31:41.610Z,30.41
2022-12-13T14:33:49.371Z,30.74
2022-12-13T14:35:53.728Z,30.82
2022-12-13T14:37:58.414Z,30.71
2022-12-13T14:40:02.759Z,30.69
2022-12-13T14:42:07.081Z,30.73
2022-12-13T14:44:11.394Z,30.71
2022-12-13T14:46:15.962Z,30.8
2022-12-13T14:48:31.294Z,30.85
2022-12-13T14:50:35.652Z,30.75
2022-12-13T14:52:39.958Z,30.8
2022-12-13T14:54:44.236Z,27.2
2022-12-13T14:56:48.570Z,23.02
2022-12-13T14:58:53.209Z,21.76
2022-12-13T15:01:00.953Z,26.22
2022-12-13T15:03:05.265Z,26.47
2022-12-13T15:05:09.635Z,26.83
2022-12-13T15:07:14.016Z,27.17
2022-12-13T15:09:18.453Z,28.01
2022-12-13T15:11:22.766Z,28.09
2022-12-13T15:13:31.863Z,28.16
2022-12-13T15:15:36.202Z,28.78
2022-12-13T15:17:40.514Z,28.95
2022-12-13T15:19:51.083Z,29.43
2022-12-13T15:22:02.837Z,29.5
2022-12-13T15:24:07.165Z,30.03
2022-12-13T15:26:11.520Z,30.08
2022-12-13T15:28:23.690Z,30.37
2022-12-13T15:30:33.257Z,30.39
2022-12-13T15:32:37.603Z,30.56
2022-12-13T15:34:41.907Z,30.56
2022-12-13T15:36:49.991Z,30.37
2022-12-13T15:38:54.357Z,30.47
2022-12-13T15:40:58.698Z,30.46
2022-12-13T15:43:03.059Z,30.55
2022-12-13T15:45:07.367Z,30.44
2022-12-13T15:47:11.674Z,30.45
2022-12-13T15:49:16.011Z,30.55
2022-12-13T15:51:32.589Z,30.38
2022-12-13T15:53:36.894Z,30.29
2022-12-13T15:55:41.218Z,30.32
2022-12-13T15:57:45.584Z,30.32
2022-12-13T15:59:49.946Z,30.31
2022-12-13T16:01:59.921Z,30.26
2022-12-13T16:04:04.239Z,30.3
2022-12-13T16:06:08.553Z,30.34
2022-12-13T16:08:16.548Z,30.3
2022-12-13T16:10:21.003Z,30.25
2022-12-13T16:12:25.302Z,30.11
2022-12-13T16:14:30.001Z,30.03
2022-12-13T16:16:34.668Z,30.42
2022-12-13T16:18:38.983Z,30.15
2022-12-13T16:20:43.607Z,29.88
2022-12-13T16:22:47.968Z,29.91
2022-12-13T16:24:52.338Z,30.04
2022-12-13T16:26:56.712Z,30.19
2022-12-13T16:29:03.846Z,30.07
2022-12-13T16:31:08.168Z,29.93
2022-12-13T16:33:29.033Z,30.13
2022-12-13T16:35:33.379Z,29.88
2022-12-13T16:37:37.671Z,29.68
2022-12-13T16:39:42.123Z,29.87
2022-12-13T16:41:46.499Z,30.47
2022-12-13T16:43:50.813Z,30.72
2022-12-13T16:45:55.456Z,30.67
2022-12-13T16:48:00.021Z,30.82
2022-12-13T16:50:04.433Z,30.98
2022-12-13T16:52:08.774Z,31.22
2022-12-13T16:54:13.104Z,31.24
2022-12-13T16:56:17.523Z,31.2
2022-12-13T16:58:21.939Z,31.4
2022-12-13T17:00:26.300Z,31.47
2022-12-13T17:02:30.899Z,31.6
2022-12-13T17:04:35.447Z,31.81
2022-12-13T17:06:39.774Z,31.76
2022-12-13T17:08:44.110Z,31.84
2022-12-13T17:10:59.752Z,32.19
2022-12-13T17:13:04.044Z,32.31
2022-12-13T17:15:08.379Z,32.44
2022-12-13T17:17:19.544Z,32.51
2022-12-13T17:19:23.917Z,32.72
2022-12-13T17:21:28.367Z,32.82
2022-12-13T17:23:33.599Z,32.84
2022-12-13T17:25:37.996Z,33.24
2022-12-13T17:27:42.618Z,33.18
2022-12-13T17:29:47.055Z,33.06
2022-12-13T17:31:51.375Z,33.26
2022-12-13T17:33:55.742Z,33.1
2022-12-13T17:36:00.076Z,33.34
2022-12-13T17:38:04.427Z,33.08
2022-12-13T17:40:08.752Z,33.02
2022-12-13T17:42:13.089Z,32.88
2022-12-13T17:44:17.443Z,32.94
2022-12-13T17:46:22.165Z,32.72
2022-12-13T17:48:28.060Z,32.73
2022-12-13T17:50:33.353Z,32.87
2022-12-13T17:52:37.723Z,32.44
2022-12-13T17:54:42.033Z,32.34
2022-12-13T17:56:46.389Z,31.98
2022-12-13T17:58:50.766Z,31.9
2022-12-13T18:00:55.106Z,32.19
2022-12-13T18:02:59.658Z,32.06
2022-12-13T18:05:04.103Z,31.97
2022-12-13T18:07:08.419Z,32.12
2022-12-13T18:09:12.807Z,32.15
2022-12-13T18:11:47.324Z,31.57
2022-12-13T18:13:57.060Z,31.68
2022-12-13T18:16:01.700Z,31.81
2022-12-13T18:18:14.530Z,32.77
2022-12-13T18:20:19.277Z,31.31
2022-12-13T18:22:23.952Z,32.22
2022-12-13T18:24:28.329Z,31.7
2022-12-13T18:26:32.684Z,32.56
2022-12-13T18:28:37.049Z,32.78
2022-12-13T18:30:41.594Z,32.58
2022-12-13T18:32:46.030Z,32.6
2022-12-13T18:34:56.656Z,32.63
2022-12-13T18:37:01.005Z,32.53
2022-12-13T18:39:05.319Z,32.48
2022-12-13T18:41:09.650Z,32.5
2022-12-13T18:43:13.998Z,32.35
2022-12-13T18:45:18.362Z,32.48
2022-12-13T18:47:23.229Z,32.34
2022-12-13T18:49:27.610Z,32.19
2022-12-13T18:51:31.994Z,32.4
2022-12-13T18:53:36.308Z,32.4
2022-12-13T18:55:40.759Z,32.6
2022-12-13T18:57:45.107Z,32.35
2022-12-13T18:59:56.909Z,31.98
2022-12-13T19:02:01.538Z,31.81
2022-12-13T19:04:05.878Z,32.02
2022-12-13T19:06:10.271Z,32.13
2022-12-13T19:08:14.697Z,32.19
2022-12-13T19:10:19.089Z,32.44
2022-12-13T19:12:23.459Z,31.97
2022-12-13T19:14:29.327Z,31.67
2022-12-13T19:16:33.888Z,31.69
2022-12-13T19:18:38.258Z,32.13
2022-12-13T19:20:42.735Z,32.05
2022-12-13T19:22:47.161Z,25.96
2022-12-13T19:24:51.714Z,30.11
2022-12-13T19:26:56.165Z,31.02
2022-12-13T19:29:00.588Z,31.2
2022-12-13T19:31:05.452Z,31.19
2022-12-13T19:33:09.911Z,30.7
2022-12-13T19:35:14.248Z,30.96
2022-12-13T19:37:18.588Z,30.8
2022-12-13T19:39:22.896Z,30.75
2022-12-13T19:41:27.566Z,30.99
2022-12-13T19:43:32.450Z,31.06
2022-12-13T19:45:36.848Z,30.71
2022-12-13T19:47:41.210Z,31.42
2022-12-13T19:49:50.366Z,31.68
2022-12-13T19:51:54.794Z,31.47
2022-12-13T19:53:59.179Z,31.59
2022-12-13T19:56:03.620Z,31.17
2022-12-13T19:58:08.037Z,31.08
2022-12-13T20:00:12.464Z,31.5
2022-12-13T20:02:16.918Z,31.44
2022-12-13T20:04:21.338Z,31.7
2022-12-13T20:06:25.785Z,31.68
2022-12-13T20:08:30.212Z,31.65
2022-12-13T20:10:34.607Z,31.65
2022-12-13T20:12:43.250Z,31.57
2022-12-13T20:14:47.662Z,31.44
2022-12-13T20:16:52.180Z,31.65
2022-12-13T20:18:57.471Z,31.7
2022-12-13T20:21:15.095Z,31.61
2022-12-13T20:23:19.703Z,31.59
2022-12-13T20:25:24.329Z,31.5
2022-12-13T20:27:29.137Z,31.19
2022-12-13T20:29:33.658Z,31.13
2022-12-13T20:31:38.265Z,30.93
2022-12-13T20:33:42.698Z,30.88
2022-12-13T20:36:27.056Z,30.36
2022-12-13T20:38:31.755Z,30.83
2022-12-13T20:40:36.106Z,30.88
2022-12-13T20:42:40.538Z,31.06
2022-12-13T20:44:44.882Z,31.46
2022-12-13T20:46:49.441Z,31.29
2022-12-13T20:48:53.795Z,31.44
2022-12-13T20:50:58.180Z,31.43
2022-12-13T20:53:02.555Z,31.42
2022-12-13T20:55:06.887Z,31.55
2022-12-13T20:57:11.216Z,31.71
2022-12-13T20:59:15.741Z,31.88
2022-12-13T21:01:20.349Z,31.72
2022-12-13T21:03:25.964Z,31.71
2022-12-13T21:05:30.532Z,31.67
2022-12-13T21:07:34.922Z,31.78
2022-12-13T21:09:39.359Z,31.86
2022-12-13T21:11:43.846Z,31.64
2022-12-13T21:13:50.485Z,31.5
2022-12-13T21:15:55.262Z,31.4
2022-12-13T21:17:59.805Z,31.1
2022-12-13T21:20:04.375Z,31.11
2022-12-13T21:22:08.971Z,31.3
2022-12-13T21:24:13.370Z,31.29
2022-12-13T21:26:17.788Z,31.44
2022-12-13T21:28:22.191Z,31.68
2022-12-13T21:30:26.601Z,32.44
2022-12-13T21:32:31.063Z,33.27
2022-12-13T21:34:35.466Z,33.06
2022-12-13T21:36:39.959Z,32.88
2022-12-13T21:38:44.322Z,32.98
2022-12-13T21:40:48.713Z,32.89
2022-12-13T21:42:53.358Z,33.28
2022-12-13T21:45:04.071Z,33.03
2022-12-13T21:47:16.114Z,32.89
2022-12-13T21:49:20.545Z,33.03
2022-12-13T21:51:24.925Z,32.92
2022-12-13T21:53:30.656Z,32.98
2022-12-13T21:55:42.219Z,32.74
2022-12-13T21:57:46.610Z,32.65
2022-12-13T21:59:50.966Z,32.58
2022-12-13T22:01:55.496Z,32.68
2022-12-13T22:04:07.956Z,32.54
2022-12-13T22:06:12.372Z,32.9
2022-12-13T22:08:16.750Z,32.99
2022-12-13T22:10:21.085Z,32.85
2022-12-13T22:12:25.403Z,32.7
2022-12-13T22:14:29.717Z,32.56
2022-12-13T22:16:34.381Z,32.72
2022-12-13T22:18:38.747Z,32.7
2022-12-13T22:20:43.297Z,32.5
2022-12-13T22:22:47.622Z,32.63
2022-12-13T22:24:55.787Z,32.64
2022-12-13T22:27:00.158Z,32.72
2022-12-13T22:29:04.521Z,32.76
2022-12-13T22:31:08.846Z,32.51
2022-12-13T22:33:13.150Z,32.68
2022-12-13T22:35:17.530Z,32.54
2022-12-13T22:37:21.875Z,32.52
2022-12-13T22:39:26.151Z,32.63
2022-12-13T22:41:30.498Z,32.6
2022-12-13T22:43:34.804Z,32.65
2022-12-13T22:45:39.369Z,32.58
2022-12-13T22:47:43.682Z,32.46
2022-12-13T22:49:50.929Z,32.71
2022-12-13T22:51:55.277Z,32.78
2022-12-13T22:53:59.611Z,32.63
2022-12-13T22:56:03.944Z,32.84
2022-12-13T22:58:08.355Z,33.01
2022-12-13T23:00:12.701Z,32.91
2022-12-13T23:02:17.729Z,33
2022-12-13T23:04:22.085Z,32.97
2022-12-13T23:06:26.415Z,32.93
2022-12-13T23:08:31.269Z,32.96
2022-12-13T23:10:35.647Z,33.01
2022-12-13T23:12:40.035Z,32.89
2022-12-13T23:14:44.323Z,32.85
2022-12-13T23:16:49.399Z,32.93
2022-12-13T23:19:49.182Z,32.91
2022-12-13T23:21:55.903Z,33.03
2022-12-13T23:24:00.251Z,32.99
2022-12-13T23:26:04.660Z,32.97
2022-12-13T23:28:08.960Z,32.97
2022-12-13T23:30:13.397Z,32.88
2022-12-13T23:32:17.697Z,32.91
2022-12-13T23:34:21.978Z,32.94
2022-12-13T23:36:26.259Z,33.04
2022-12-13T23:38:31.219Z,33.23
2022-12-13T23:40:35.685Z,33.21
2022-12-13T23:42:39.994Z,33.05
2022-12-13T23:44:44.294Z,33.23
2022-12-13T23:46:50.885Z,33.08
2022-12-13T23:48:57.004Z,33.31
2022-12-13T23:51:01.365Z,33.35
2022-12-13T23:53:05.696Z,33.24
2022-12-13T23:55:10.003Z,33.23
2022-12-13T23:57:14.238Z,33.41
2022-12-13T23:59:18.538Z,33.12
